createdAt,value
2022-10-26T00:01:13.493Z,96.10
2022-10-26T00:03:41.857Z,96.20
2022-10-26T00:06:12.184Z,96.10
2022-10-26T00:08:39.593Z,96.10
2022-10-26T00:11:07.023Z,96.10
2022-10-26T00:13:35.070Z,96.20
2022-10-26T00:16:02.133Z,96.20
2022-10-26T00:18:28.852Z,96.30
2022-10-26T00:20:55.457Z,96.30
2022-10-26T00:23:22.124Z,96.30
2022-10-26T00:25:55.937Z,96.30
2022-10-26T00:28:22.814Z,96.40
2022-10-26T00:30:49.489Z,96.40
2022-10-26T00:33:16.107Z,96.40
2022-10-26T00:35:45.925Z,96.40
2022-10-26T00:38:13.258Z,96.40
2022-10-26T00:40:39.989Z,96.40
2022-10-26T00:43:15.884Z,96.40
2022-10-26T00:45:44.522Z,96.50
2022-10-26T00:48:24.676Z,96.50
2022-10-26T00:50:53.821Z,96.50
2022-10-26T00:53:20.692Z,96.50
2022-10-26T00:55:50.870Z,96.50
2022-10-26T00:58:18.326Z,96.50
2022-10-26T01:00:45.385Z,96.50
2022-10-26T01:03:12.171Z,96.40
2022-10-26T01:05:42.119Z,96.50
2022-10-26T01:08:09.251Z,96.50
2022-10-26T01:10:38.629Z,96.50
2022-10-26T01:13:06.068Z,96.50
2022-10-26T01:15:42.315Z,96.40
2022-10-26T01:18:21.322Z,96.50
2022-10-26T01:21:09.381Z,96.50
2022-10-26T01:23:56.532Z,96.40
2022-10-26T01:26:42.088Z,96.30
2022-10-26T01:29:32.694Z,96.50
2022-10-26T01:32:11.683Z,96.40
2022-10-26T01:34:46.680Z,96.40
2022-10-26T01:37:19.691Z,96.40
2022-10-26T01:39:52.398Z,96.30
2022-10-26T01:42:22.986Z,96.40
2022-10-26T01:44:57.582Z,96.40
2022-10-26T01:47:26.025Z,96.40
2022-10-26T01:49:55.774Z,96.30
2022-10-26T01:52:23.710Z,96.40
2022-10-26T01:54:50.395Z,96.40
2022-10-26T01:57:21.128Z,96.30
2022-10-26T02:00:01.350Z,96.30
2022-10-26T02:02:42.952Z,96.40
2022-10-26T02:05:23.552Z,96.40
2022-10-26T02:08:04.889Z,96.30
2022-10-26T02:11:06.747Z,96.30
2022-10-26T02:13:52.272Z,96.50
2022-10-26T02:16:22.382Z,96.50
2022-10-26T02:18:57.533Z,96.70
2022-10-26T02:21:31.539Z,96.40
2022-10-26T02:23:59.257Z,96.50
2022-10-26T02:26:29.591Z,96.50
2022-10-26T02:29:00.504Z,96.60
2022-10-26T02:31:28.345Z,96.60
2022-10-26T02:34:00.246Z,96.70
2022-10-26T02:36:31.484Z,96.70
2022-10-26T02:39:07.501Z,96.80
2022-10-26T02:41:35.676Z,96.80
2022-10-26T02:44:34.764Z,96.90
2022-10-26T02:47:02.020Z,97.10
2022-10-26T02:49:29.411Z,96.90
2022-10-26T02:52:08.580Z,96.90
2022-10-26T02:55:01.229Z,97.00
2022-10-26T02:57:40.933Z,97.00
2022-10-26T03:00:13.815Z,97.00
2022-10-26T03:02:46.123Z,96.90
2022-10-26T03:05:21.379Z,96.80
2022-10-26T03:07:48.028Z,96.90
2022-10-26T03:10:15.052Z,96.90
2022-10-26T03:12:41.740Z,97.00
2022-10-26T03:15:08.872Z,97.00
2022-10-26T03:17:35.657Z,97.10
2022-10-26T03:20:02.364Z,97.20
2022-10-26T03:22:28.973Z,97.20
2022-10-26T03:24:55.731Z,97.30
2022-10-26T03:27:22.964Z,97.40
2022-10-26T03:29:49.554Z,97.50
2022-10-26T03:32:16.216Z,97.50
2022-10-26T03:34:42.823Z,97.60
2022-10-26T03:37:09.466Z,97.70
2022-10-26T03:39:36.284Z,97.70
2022-10-26T03:42:03.238Z,97.80
2022-10-26T03:44:29.913Z,97.80
2022-10-26T03:46:56.537Z,97.80
2022-10-26T03:49:23.198Z,97.90
2022-10-26T03:51:49.778Z,97.90
2022-10-26T03:54:16.371Z,97.90
2022-10-26T03:56:42.950Z,97.90
2022-10-26T03:59:09.599Z,97.90
2022-10-26T04:01:36.380Z,97.90
2022-10-26T04:04:03.047Z,97.90
2022-10-26T04:06:29.702Z,97.90
2022-10-26T04:09:02.172Z,97.90
2022-10-26T04:11:29.606Z,97.90
2022-10-26T04:13:59.443Z,97.90
2022-10-26T04:16:31.014Z,97.90
2022-10-26T04:19:00.808Z,97.90
2022-10-26T04:21:27.432Z,97.90
2022-10-26T04:23:54.050Z,97.90
2022-10-26T04:26:20.904Z,97.80
2022-10-26T04:28:47.510Z,97.70
2022-10-26T04:31:14.123Z,97.60
2022-10-26T04:33:40.713Z,97.50
2022-10-26T04:36:07.798Z,97.50
2022-10-26T04:38:34.490Z,97.50
2022-10-26T04:41:01.077Z,97.50
2022-10-26T04:43:27.676Z,97.60
2022-10-26T04:45:57.913Z,97.70
2022-10-26T04:51:01.896Z,97.80
2022-10-26T04:53:28.590Z,97.90
2022-10-26T04:55:59.284Z,97.90
2022-10-26T04:58:26.660Z,97.90
2022-10-26T05:00:53.702Z,97.80
2022-10-26T05:03:20.645Z,97.80
2022-10-26T05:05:47.784Z,97.80
2022-10-26T05:08:15.591Z,97.80
2022-10-26T05:10:42.788Z,97.90
2022-10-26T05:13:10.869Z,97.90
2022-10-26T05:15:37.470Z,97.90
2022-10-26T05:18:05.772Z,97.90
2022-10-26T05:20:34.300Z,98.00
2022-10-26T05:23:03.063Z,97.90
2022-10-26T05:25:32.228Z,97.90
2022-10-26T05:28:04.164Z,97.90
2022-10-26T05:30:31.775Z,97.90
2022-10-26T05:33:05.014Z,97.80
2022-10-26T05:35:32.396Z,97.70
2022-10-26T05:37:59.663Z,97.70
2022-10-26T05:40:26.323Z,97.70
2022-10-26T05:42:54.273Z,97.70
2022-10-26T05:45:20.881Z,97.60
2022-10-26T05:47:47.883Z,97.70
2022-10-26T05:50:14.774Z,97.70
2022-10-26T05:52:46.363Z,97.70
2022-10-26T05:55:15.526Z,97.80
2022-10-26T05:57:43.225Z,97.80
2022-10-26T06:00:15.835Z,97.90
2022-10-26T06:03:08.018Z,97.90
2022-10-26T06:05:56.077Z,98.10
2022-10-26T06:08:24.794Z,98.00
2022-10-26T06:10:52.520Z,97.90
2022-10-26T06:13:19.673Z,98.00
2022-10-26T06:16:16.894Z,98.00
2022-10-26T06:19:02.332Z,98.20
2022-10-26T06:21:42.486Z,98.00
2022-10-26T06:24:12.854Z,98.20
2022-10-26T06:26:52.343Z,98.20
2022-10-26T06:29:49.295Z,98.20
2022-10-26T06:32:16.571Z,98.30
2022-10-26T06:34:50.251Z,98.20
2022-10-26T06:37:17.376Z,98.30
2022-10-26T06:39:48.909Z,98.30
2022-10-26T06:42:18.494Z,98.40
2022-10-26T06:44:45.340Z,98.40
2022-10-26T06:47:31.104Z,98.50
2022-10-26T06:50:13.170Z,98.60
2022-10-26T06:52:52.104Z,98.50
2022-10-26T06:55:19.163Z,98.90
2022-10-26T06:57:46.036Z,98.50
2022-10-26T07:00:25.035Z,98.50
2022-10-26T07:02:52.220Z,98.70
2022-10-26T07:05:19.105Z,98.60
2022-10-26T07:07:47.492Z,98.70
2022-10-26T07:10:15.160Z,98.70
2022-10-26T07:12:41.766Z,98.70
2022-10-26T07:17:49.106Z,98.80
2022-10-26T07:20:17.647Z,98.90
2022-10-26T07:22:44.378Z,98.80
2022-10-26T07:25:12.296Z,98.80
2022-10-26T07:27:39.162Z,98.80
2022-10-26T07:30:06.317Z,98.80
2022-10-26T07:32:33.063Z,98.80
2022-10-26T07:34:59.703Z,98.90
2022-10-26T07:37:26.310Z,98.90
2022-10-26T07:39:52.889Z,98.90
2022-10-26T07:42:20.049Z,98.90
2022-10-26T07:44:46.858Z,99.00
2022-10-26T07:47:13.975Z,99.00
2022-10-26T07:49:40.853Z,99.10
2022-10-26T07:52:07.435Z,99.10
2022-10-26T07:54:34.039Z,99.10
2022-10-26T07:57:00.999Z,99.20
2022-10-26T07:59:27.722Z,99.20
2022-10-26T08:01:54.504Z,99.30
2022-10-26T08:04:21.125Z,99.40
2022-10-26T08:06:48.656Z,99.50
2022-10-26T08:09:15.424Z,99.50
2022-10-26T08:11:42.091Z,99.60
2022-10-26T08:14:10.961Z,99.60
2022-10-26T08:16:40.192Z,99.70
2022-10-26T08:19:07.600Z,99.80
2022-10-26T08:21:40.126Z,99.80
2022-10-26T08:24:07.230Z,99.80
2022-10-26T08:26:33.882Z,99.90
2022-10-26T08:29:00.508Z,99.90
2022-10-26T08:31:27.115Z,99.90
2022-10-26T08:33:53.821Z,99.90
2022-10-26T08:36:25.183Z,99.90
2022-10-26T08:38:52.593Z,99.90
2022-10-26T08:41:33.148Z,99.90
2022-10-26T08:44:07.777Z,99.90
2022-10-26T08:46:39.813Z,99.90
2022-10-26T08:49:24.463Z,99.90
2022-10-26T08:51:54.803Z,99.90
2022-10-26T08:54:40.476Z,99.90
2022-10-26T08:57:33.822Z,99.90
2022-10-26T09:00:04.371Z,99.20
2022-10-26T09:02:31.077Z,99.10
2022-10-26T09:04:59.375Z,98.70
2022-10-26T09:07:29.018Z,98.30
2022-10-26T09:10:00.833Z,97.90
2022-10-26T09:12:45.738Z,97.60
2022-10-26T09:15:23.729Z,97.00
2022-10-26T09:18:08.960Z,97.00
2022-10-26T09:20:46.045Z,96.80
2022-10-26T09:23:23.398Z,97.30
2022-10-26T09:26:03.004Z,98.30
2022-10-26T09:28:34.532Z,98.60
2022-10-26T09:31:02.478Z,99.10
2022-10-26T09:33:31.037Z,99.10
2022-10-26T09:36:11.931Z,98.80
2022-10-26T09:38:53.482Z,97.30
2022-10-26T09:41:27.146Z,96.80
2022-10-26T09:44:04.527Z,97.80
2022-10-26T09:47:00.366Z,97.40
2022-10-26T09:49:51.790Z,96.10
2022-10-26T09:52:18.531Z,95.60
2022-10-26T09:54:45.283Z,95.70
2022-10-26T09:57:15.702Z,94.10
2022-10-26T09:59:42.629Z,91.90
2022-10-26T10:02:34.223Z,92.00
2022-10-26T10:05:01.538Z,88.60
2022-10-26T10:07:28.261Z,90.00
2022-10-26T10:10:08.190Z,87.90
2022-10-26T10:12:34.803Z,83.00
2022-10-26T10:15:01.410Z,85.00
2022-10-26T10:17:28.109Z,84.10
2022-10-26T10:19:54.885Z,82.00
2022-10-26T10:22:25.626Z,80.70
2022-10-26T10:25:00.149Z,78.80
2022-10-26T10:27:28.139Z,78.60
2022-10-26T10:29:59.973Z,79.20
2022-10-26T10:32:35.609Z,78.50
2022-10-26T10:35:29.350Z,78.40
2022-10-26T10:37:56.409Z,77.40
2022-10-26T10:40:29.153Z,79.00
2022-10-26T10:43:04.391Z,77.70
2022-10-26T10:45:31.741Z,77.40
2022-10-26T10:48:18.351Z,78.80
2022-10-26T10:51:12.219Z,77.40
2022-10-26T10:53:52.133Z,76.90
2022-10-26T10:56:35.260Z,77.20
2022-10-26T10:59:18.380Z,77.20
2022-10-26T11:02:00.673Z,78.70
2022-10-26T11:04:48.091Z,77.50
2022-10-26T11:07:18.098Z,78.30
2022-10-26T11:09:48.675Z,79.30
2022-10-26T11:15:07.986Z,79.30
2022-10-26T11:17:55.776Z,79.70
2022-10-26T11:20:26.695Z,79.70
2022-10-26T11:22:54.251Z,81.50
2022-10-26T11:25:36.106Z,81.30
2022-10-26T11:28:14.710Z,80.60
2022-10-26T11:30:46.914Z,81.60
2022-10-26T11:33:17.201Z,81.70
2022-10-26T11:36:02.676Z,82.90
2022-10-26T11:38:46.603Z,82.70
2022-10-26T11:41:36.069Z,81.90
2022-10-26T11:44:34.423Z,83.60
2022-10-26T11:47:23.665Z,84.20
2022-10-26T11:50:17.489Z,84.10
2022-10-26T11:52:59.473Z,83.30
2022-10-26T11:55:26.068Z,83.20
2022-10-26T11:57:54.222Z,84.00
2022-10-26T12:00:22.095Z,83.60
2022-10-26T12:03:10.124Z,83.50
2022-10-26T12:05:52.054Z,82.60
2022-10-26T12:08:33.168Z,82.70
2022-10-26T12:11:31.692Z,82.70
2022-10-26T12:14:20.744Z,82.90
2022-10-26T12:17:09.664Z,83.80
2022-10-26T12:19:51.326Z,83.30
2022-10-26T12:22:20.225Z,82.70
2022-10-26T12:25:05.431Z,83.70
2022-10-26T12:27:53.466Z,83.70
2022-10-26T12:30:24.592Z,82.60
2022-10-26T12:32:54.572Z,83.90
2022-10-26T12:35:42.563Z,83.40
2022-10-26T12:38:24.561Z,83.40
2022-10-26T12:41:18.805Z,83.40
2022-10-26T12:43:46.190Z,83.10
2022-10-26T12:46:12.759Z,84.00
2022-10-26T12:48:42.224Z,84.40
2022-10-26T12:51:26.511Z,84.10
2022-10-26T12:54:21.079Z,84.50
2022-10-26T12:57:00.016Z,84.30
2022-10-26T12:59:38.609Z,84.90
2022-10-26T13:02:11.172Z,85.10
2022-10-26T13:04:56.846Z,84.80
2022-10-26T13:07:33.724Z,85.00
2022-10-26T13:10:12.379Z,85.10
2022-10-26T13:12:56.928Z,85.00
2022-10-26T13:15:27.220Z,85.40
2022-10-26T13:18:08.617Z,86.40
2022-10-26T13:20:37.825Z,85.80
2022-10-26T13:23:16.705Z,86.10
2022-10-26T13:26:07.267Z,85.70
2022-10-26T13:28:39.704Z,86.00
2022-10-26T13:31:16.867Z,86.60
2022-10-26T13:33:46.057Z,86.30
2022-10-26T13:36:29.203Z,86.40
2022-10-26T13:39:00.440Z,86.50
2022-10-26T13:41:31.821Z,86.60
2022-10-26T13:44:03.105Z,86.60
2022-10-26T13:46:30.883Z,86.80
2022-10-26T13:49:11.340Z,86.90
2022-10-26T13:51:46.658Z,86.90
2022-10-26T13:54:38.905Z,86.80
2022-10-26T13:57:15.631Z,87.20
2022-10-26T13:59:45.020Z,87.20
2022-10-26T14:02:22.652Z,87.70
2022-10-26T14:04:54.317Z,87.80
2022-10-26T14:07:25.523Z,87.90
2022-10-26T14:09:57.749Z,88.20
2022-10-26T14:12:28.820Z,88.30
2022-10-26T14:15:03.707Z,88.50
2022-10-26T14:17:30.452Z,89.00
2022-10-26T14:19:57.070Z,89.30
2022-10-26T14:22:27.639Z,89.50
2022-10-26T14:24:59.455Z,89.60
2022-10-26T14:27:31.480Z,89.70
2022-10-26T14:30:21.211Z,90.00
2022-10-26T14:32:45.689Z,90.00
2022-10-26T14:35:15.551Z,90.10
2022-10-26T14:37:47.180Z,90.10
2022-10-26T14:40:17.945Z,90.00
2022-10-26T14:42:50.339Z,90.00
2022-10-26T14:45:29.407Z,90.10
2022-10-26T14:47:57.115Z,90.10
2022-10-26T14:50:30.887Z,90.20
2022-10-26T14:53:15.588Z,90.30
2022-10-26T14:56:01.175Z,90.20
2022-10-26T15:01:23.233Z,90.40
2022-10-26T15:04:30.200Z,90.40
2022-10-26T15:07:23.153Z,90.40
2022-10-26T15:09:51.556Z,90.50
2022-10-26T15:12:38.429Z,90.80
2022-10-26T15:15:14.306Z,90.60
2022-10-26T15:17:43.511Z,90.70
2022-10-26T15:20:19.446Z,90.90
2022-10-26T15:23:01.002Z,90.70
2022-10-26T15:25:30.243Z,91.10
2022-10-26T15:28:20.454Z,90.80
2022-10-26T15:31:09.786Z,90.90
2022-10-26T15:33:41.423Z,90.60
2022-10-26T15:36:07.993Z,90.90
2022-10-26T15:38:35.228Z,91.00
2022-10-26T15:41:03.835Z,91.10
2022-10-26T15:43:30.520Z,91.10
2022-10-26T15:45:57.279Z,91.20
2022-10-26T15:48:30.822Z,91.30
2022-10-26T15:50:58.087Z,91.40
2022-10-26T15:53:29.593Z,91.40
2022-10-26T15:56:00.167Z,91.40
2022-10-26T15:58:29.307Z,91.50
2022-10-26T16:00:55.964Z,91.40
2022-10-26T16:03:24.999Z,91.40
2022-10-26T16:05:57.238Z,91.50
2022-10-26T16:08:24.375Z,91.40
2022-10-26T16:10:51.367Z,91.40
2022-10-26T16:13:18.120Z,91.40
2022-10-26T16:15:45.506Z,91.40
2022-10-26T16:18:12.449Z,91.40
2022-10-26T16:20:39.259Z,91.40
2022-10-26T16:23:08.568Z,91.30
2022-10-26T16:25:40.750Z,91.40
2022-10-26T16:28:07.396Z,91.60
2022-10-26T16:30:36.782Z,91.50
2022-10-26T16:33:03.540Z,91.50
2022-10-26T16:35:30.126Z,91.50
2022-10-26T16:37:56.735Z,91.60
2022-10-26T16:40:23.347Z,91.70
2022-10-26T16:42:50.124Z,91.70
2022-10-26T16:45:17.021Z,91.70
2022-10-26T16:47:43.822Z,91.70
2022-10-26T16:50:12.429Z,91.70
2022-10-26T16:52:39.522Z,91.80
2022-10-26T16:55:08.278Z,91.80
2022-10-26T16:57:36.186Z,91.90
2022-10-26T17:00:04.685Z,92.00
2022-10-26T17:02:31.394Z,92.00
2022-10-26T17:05:01.310Z,92.00
2022-10-26T17:07:30.959Z,92.10
2022-10-26T17:09:57.590Z,92.10
2022-10-26T17:12:24.270Z,92.30
2022-10-26T17:14:51.271Z,92.30
2022-10-26T17:17:17.885Z,92.30
2022-10-26T17:19:44.524Z,92.40
2022-10-26T17:22:11.123Z,92.50
2022-10-26T17:24:38.140Z,92.50
2022-10-26T17:27:04.728Z,92.60
2022-10-26T17:29:31.389Z,92.70
2022-10-26T17:31:58.062Z,92.70
2022-10-26T17:34:24.717Z,92.70
2022-10-26T17:36:51.343Z,92.70
2022-10-26T17:39:19.488Z,92.80
2022-10-26T17:41:46.134Z,92.80
2022-10-26T17:44:12.924Z,92.80
2022-10-26T17:46:39.540Z,92.90
2022-10-26T17:49:06.165Z,92.90
2022-10-26T17:51:32.794Z,93.00
2022-10-26T17:54:00.013Z,92.90
2022-10-26T17:56:29.091Z,93.00
2022-10-26T17:58:58.294Z,93.10
2022-10-26T18:01:25.972Z,93.20
2022-10-26T18:03:52.982Z,93.20
2022-10-26T18:06:20.715Z,93.20
2022-10-26T18:08:47.354Z,93.30
2022-10-26T18:11:25.367Z,93.30
2022-10-26T18:13:54.307Z,93.50
2022-10-26T18:16:24.653Z,93.40
2022-10-26T18:19:00.034Z,93.50
2022-10-26T18:21:28.251Z,93.60
2022-10-26T18:23:55.452Z,93.50
2022-10-26T18:26:26.050Z,93.90
2022-10-26T18:28:53.131Z,93.60
2022-10-26T18:31:22.566Z,93.60
2022-10-26T18:33:49.369Z,93.60
2022-10-26T18:36:18.128Z,93.70
2022-10-26T18:38:48.227Z,93.90
2022-10-26T18:41:16.804Z,94.10
2022-10-26T18:43:45.898Z,94.30
2022-10-26T18:46:23.250Z,94.30
2022-10-26T18:48:51.038Z,94.60
2022-10-26T18:51:20.207Z,94.60
2022-10-26T18:53:47.587Z,94.70
2022-10-26T18:56:21.494Z,94.70
2022-10-26T18:58:50.190Z,94.90
2022-10-26T19:01:21.304Z,94.80
2022-10-26T19:03:52.250Z,94.80
2022-10-26T19:06:33.466Z,94.70
2022-10-26T19:09:00.445Z,94.70
2022-10-26T19:11:28.498Z,94.50
2022-10-26T19:13:55.611Z,94.50
2022-10-26T19:16:44.730Z,94.50
2022-10-26T19:19:13.321Z,94.50
2022-10-26T19:21:40.065Z,94.50
2022-10-26T19:24:13.337Z,94.50
2022-10-26T19:26:43.517Z,94.50
2022-10-26T19:29:14.652Z,94.40
2022-10-26T19:31:46.147Z,94.50
2022-10-26T19:34:14.685Z,94.40
2022-10-26T19:36:44.680Z,94.50
2022-10-26T19:39:22.560Z,94.50
2022-10-26T19:41:49.176Z,94.50
2022-10-26T19:44:16.624Z,94.50
2022-10-26T19:46:44.673Z,94.50
2022-10-26T19:49:12.752Z,94.50
2022-10-26T19:51:39.748Z,94.40
2022-10-26T19:54:07.103Z,94.40
2022-10-26T19:56:35.780Z,94.50
2022-10-26T19:59:02.969Z,94.60
2022-10-26T20:01:29.618Z,94.60
2022-10-26T20:03:57.105Z,94.60
2022-10-26T20:06:23.885Z,94.60
2022-10-26T20:08:50.659Z,94.60
2022-10-26T20:11:18.479Z,95.00
2022-10-26T20:13:46.473Z,94.70
2022-10-26T20:16:14.578Z,94.70
2022-10-26T20:18:44.408Z,94.70
2022-10-26T20:21:15.183Z,94.70
2022-10-26T20:23:42.564Z,94.80
2022-10-26T20:26:09.230Z,94.80
2022-10-26T20:28:35.971Z,94.80
2022-10-26T20:31:02.597Z,94.90
2022-10-26T20:33:29.201Z,94.80
2022-10-26T20:35:57.764Z,94.90
2022-10-26T20:38:24.794Z,94.90
2022-10-26T20:40:58.197Z,95.00
2022-10-26T20:43:26.450Z,95.10
2022-10-26T20:45:53.832Z,95.10
2022-10-26T20:48:21.490Z,95.10
2022-10-26T20:51:00.965Z,95.10
2022-10-26T20:54:08.176Z,95.20
2022-10-26T20:56:39.931Z,95.50
2022-10-26T20:59:10.516Z,95.00
2022-10-26T21:01:38.418Z,95.00
2022-10-26T21:04:05.206Z,95.00
2022-10-26T21:06:39.723Z,95.10
2022-10-26T21:09:07.512Z,95.10
2022-10-26T21:11:34.734Z,95.20
2022-10-26T21:14:03.125Z,95.10
2022-10-26T21:16:29.789Z,95.10
2022-10-26T21:18:56.421Z,95.20
2022-10-26T21:21:23.011Z,95.20
2022-10-26T21:23:49.643Z,95.30
2022-10-26T21:26:16.291Z,95.30
2022-10-26T21:28:47.274Z,95.30
2022-10-26T21:31:16.423Z,95.30
2022-10-26T21:33:45.190Z,95.30
2022-10-26T21:36:12.753Z,95.30
2022-10-26T21:38:40.889Z,95.30
2022-10-26T21:41:15.996Z,95.30
2022-10-26T21:43:45.839Z,95.30
2022-10-26T21:46:13.444Z,95.30
2022-10-26T21:48:41.012Z,95.30
2022-10-26T21:51:13.326Z,95.40
2022-10-26T21:53:40.649Z,95.50
2022-10-26T21:56:17.744Z,95.40
2022-10-26T21:58:44.760Z,95.60
2022-10-26T22:01:11.473Z,95.50
2022-10-26T22:03:39.164Z,95.60
2022-10-26T22:06:07.519Z,95.60
2022-10-26T22:08:34.698Z,95.60
2022-10-26T22:11:34.673Z,95.50
2022-10-26T22:14:01.837Z,95.60
2022-10-26T22:16:30.812Z,95.40
2022-10-26T22:18:59.419Z,95.50
2022-10-26T22:21:27.800Z,95.50
2022-10-26T22:23:54.924Z,95.50
2022-10-26T22:26:23.688Z,95.50
2022-10-26T22:28:52.837Z,95.60
2022-10-26T22:31:41.731Z,95.70
2022-10-26T22:34:14.621Z,95.70
2022-10-26T22:36:41.470Z,95.80
2022-10-26T22:39:08.067Z,95.70
2022-10-26T22:41:34.686Z,95.70
2022-10-26T22:44:07.536Z,95.80
2022-10-26T22:46:34.292Z,95.90
2022-10-26T22:49:02.031Z,95.80
2022-10-26T22:51:34.265Z,95.90
2022-10-26T22:54:02.767Z,96.00
2022-10-26T22:56:31.266Z,95.90
2022-10-26T22:58:58.091Z,95.90
2022-10-26T23:01:28.333Z,95.90
2022-10-26T23:03:56.063Z,95.90
2022-10-26T23:06:24.601Z,95.80
2022-10-26T23:08:51.413Z,95.80
2022-10-26T23:11:19.733Z,95.80
2022-10-26T23:13:46.626Z,95.90
2022-10-26T23:16:15.508Z,95.80
2022-10-26T23:18:42.403Z,95.80
2022-10-26T23:21:10.528Z,95.90
2022-10-26T23:23:37.866Z,96.00
2022-10-26T23:26:07.112Z,95.90
2022-10-26T23:28:34.553Z,96.00
2022-10-26T23:31:01.516Z,96.00
2022-10-26T23:33:28.478Z,96.10
2022-10-26T23:35:55.194Z,96.10
2022-10-26T23:38:21.981Z,96.10
2022-10-26T23:40:58.799Z,96.20
2022-10-26T23:43:27.226Z,96.30
2022-10-26T23:45:54.825Z,96.20
2022-10-26T23:48:21.844Z,96.20
2022-10-26T23:50:50.033Z,96.10
2022-10-26T23:53:18.897Z,96.10
2022-10-26T23:55:46.457Z,96.00
2022-10-26T23:58:14.024Z,96.10
